Terminal Aerodrome Forecast
Issued by NWS Brownsville, TX

Home | Current Version | Previous Version | Text Only | Print | Product List | Glossary On
Versions: 1 2 3 4 5 6 7 8 9 10 11 12 13 14 15 16
000
FTUS44 KBRO 042056 AAA
TAFHRL
TAF AMD
KHRL 042056Z 0421/0518 16013KT P6SM SCT040 SCT150
     FM050200 15010KT P6SM SKC
      TEMPO 0502/0505 5SM FU
     FM051400 15014G22KT P6SM SCT040=

USA.gov is the U.S. government's official web portal to all federal, state and local government web resources and services.